Columbus, OH (43235)

9:04 PM EST on February 13, 2016 (GMT -0500)
glemuir appartments | | Change Station
CLOSE
Current Station
Personal Weather Station
Location: Columbus, OH
Elevation: 909 ft
Nearby Weather Stations

Elev 909 ft 40.11 °N, 83.07 °W | Updated 2 seconds ago

Clear
Clear
10.4 °F
Feels Like 10 °F
N
0.5
Wind Variable Wind from NW
Gusts 0.5 mph

Today
High -- | Low -- °F
--% Chance of Precip.
Yesterday
High -- | Low -- °F
Precip. -- in
Pressure 30.54 in
Visibility 10.0 miles
Clouds Clear
Windchill 10 °F
Dew Point 2 °F
Humidity 70%
Rainfall 0.00 in
Snow Depth Not available.
7:28 AM 6:05 PM
Waxing Crescent, 36% visible
METAR KOSU 140153Z 28006KT 10SM CLR M13/M17 A3047 RMK AO2 SLP340 T11331167
Pressure 30.54 in
Visibility 10.0 miles
Clouds Clear
Windchill 10 °F
Dew Point 2 °F
Humidity 70%
Rainfall 0.00 in
Snow Depth Not available.
7:28 AM 6:05 PM
Waxing Crescent, 36% visible
METAR KOSU 140153Z 28006KT 10SM CLR M13/M17 A3047 RMK AO2 SLP340 T11331167

10-Day Weather Forecast

Almanac

Astronomy

Feb. 13, 2016 Rise Set
Actual Time
Civil Twilight
Nautical Twilight
Astronomical Twilight
Moon
Length of Visible Light
Length of Day
Tomorrow will be .
, % of the Moon is Illuminated

Today's Extremes

State Highs State Lows

Community

WunderPhotos

Upload Photos

1,892,725 photos uploaded!

WunderBlog® & News

Nearby

Air Quality

  Air Quality AQ Index Pollutant
Not available.

Snow Depth

Station Depth Elevation

Earthquake Activity

City Distance Mag. Time & Date
Minimum magnitude displayed is 2.5.

Coastal Water Temperatures

Place Temperature

Stations

Nearby Weather Stations

Station Location Temp. Windchill Dew Point Humidity Wind Precip. Elev Updated Type
                   

Watches & Warnings

There are currently no watches in effect.